logo
Search for airport 
image banner adimage banner adimage banner ad
image banner ad

LODV - Lkh Weststeiermark Standort Voitsberg Lkh

Located in District Voitsberg, Austria

ICAO - , IATA -

Data provided by Airmate  

General information

Coordinates: N47°3'8" E15°8'22"
Elevation is 1322 feet MSL.
 
View others Airports in Styria

Operational data

Special qualification required
Current time UTC:
Current local time:
Weather at : LOWG - Graz ( 24 km )
METAR: LOWG 281350Z AUTO 17004KT 9999 NCD 14/07 Q1017 NOSIG
TAF: TAF LOWG 281115Z 2812/2912 VRB03KT 9999 FEW040 TX14/2814Z TN07/2905Z TEMPO 2900/2909 1200 BCFG
View NOTAMs / SUP AIP / TFR affecting this airport [VIEW]
Communications frequencies: [VIEW]

Runways:

Airport contact information

Address: District Voitsberg Austria

Satellite view of LODV